Terminal Aerodrome Forecast
Issued by NWS Wilmington, OH

Current Version | Previous Version | Text Only | Print | Product List | Glossary Off
Versions: 1 2 3 4 5 6 7 8 9 10 11 12 13 14 15 16 17 18 19 20 21 22 23 24 25 26 27 28 29 30

000
FTUS41 KILN 292300
TAFILN
TAF
KILN 292340Z 3000/3024 27022G28KT P6SM VCSH OVC015
     FM300100 29015G25KT P6SM OVC012
     FM301000 31014G20KT P6SM OVC022
     FM301500 33012G20KT P6SM BKN025
     FM301800 34011KT P6SM SCT025=

USA.gov is the U.S. government's official web portal to all federal, state and local government web resources and services.